createdAt,value
2019-04-22T00:01:56.998Z,12.55
2019-04-22T00:04:45.029Z,19.55
2019-04-22T00:07:30.638Z,18.10
2019-04-22T00:12:47.343Z,14.28
2019-04-22T00:15:15.217Z,14.20
2019-04-22T00:18:05.480Z,12.82
2019-04-22T00:20:33.621Z,11.70
2019-04-22T00:23:03.773Z,13.38
2019-04-22T00:25:49.344Z,18.45
2019-04-22T00:28:39.339Z,14.85
2019-04-22T00:30:56.162Z,15.28
2019-04-22T00:33:29.054Z,15.45
2019-04-22T00:36:04.331Z,18.40
2019-04-22T00:38:38.669Z,16.95
2019-04-22T00:41:14.947Z,14.63
2019-04-22T00:43:51.101Z,18.23
2019-04-22T00:46:25.117Z,20.70
2019-04-22T00:49:48.977Z,17.42
2019-04-22T00:51:44.907Z,15.55
2019-04-22T00:54:08.705Z,14.03
2019-04-22T00:56:48.226Z,17.62
2019-04-22T00:59:23.365Z,16.82
2019-04-22T01:02:01.930Z,15.93
2019-04-22T01:07:06.073Z,15.98
2019-04-22T01:09:46.532Z,15.68
2019-04-22T01:12:28.437Z,13.58
2019-04-22T01:15:00.394Z,12.10
2019-04-22T01:17:34.384Z,13.68
2019-04-22T01:20:23.899Z,13.72
2019-04-22T01:22:45.456Z,16.15
2019-04-22T01:25:19.136Z,13.53
2019-04-22T01:27:52.823Z,14.80
2019-04-22T01:30:24.412Z,13.98
2019-04-22T01:32:53.916Z,14.58
2019-04-22T01:35:41.280Z,14.60
2019-04-22T01:38:21.823Z,16.17
2019-04-22T01:41:07.214Z,15.13
2019-04-22T01:43:46.208Z,16.15
2019-04-22T01:46:16.387Z,13.25
2019-04-22T01:48:47.726Z,15.23
2019-04-22T01:51:35.462Z,13.62
2019-04-22T01:54:05.175Z,14.03
2019-04-22T01:56:34.920Z,12.68
2019-04-22T01:58:59.356Z,13.00
2019-04-22T02:01:50.992Z,16.15
2019-04-22T02:04:26.898Z,12.35
2019-04-22T02:06:57.542Z,15.98
2019-04-22T02:09:38.621Z,13.90
2019-04-22T02:12:13.132Z,14.98
2019-04-22T02:14:53.910Z,17.37
2019-04-22T02:17:26.718Z,15.25
2019-04-22T02:20:04.057Z,19.30
2019-04-22T02:23:27.112Z,20.30
2019-04-22T02:25:34.621Z,15.00
2019-04-22T02:28:16.993Z,17.65
2019-04-22T02:31:05.037Z,15.65
2019-04-22T02:38:51.867Z,13.78
2019-04-22T02:41:22.740Z,14.00
2019-04-22T02:44:02.086Z,17.73
2019-04-22T02:46:49.406Z,15.05
2019-04-22T02:51:32.759Z,18.60
2019-04-22T02:56:54.287Z,15.50
2019-04-22T02:59:34.974Z,13.65
2019-04-22T03:02:11.988Z,13.70
2019-04-22T03:04:48.527Z,14.47
2019-04-22T03:07:29.328Z,13.08
2019-04-22T03:09:57.871Z,13.40
2019-04-22T03:12:35.259Z,14.05
2019-04-22T03:15:07.852Z,12.35
2019-04-22T03:17:47.347Z,12.93
2019-04-22T03:20:41.947Z,13.90
2019-04-22T03:23:11.605Z,13.48
2019-04-22T03:28:10.322Z,13.60
2019-04-22T03:31:34.430Z,12.68
2019-04-22T03:34:39.391Z,14.03
2019-04-22T03:39:29.812Z,14.28
2019-04-22T03:42:02.522Z,16.52
2019-04-22T03:47:11.574Z,21.55
2019-04-22T03:52:10.809Z,15.80
2019-04-22T03:59:59.383Z,16.48
2019-04-22T04:05:10.814Z,14.18
2019-04-22T04:08:12.111Z,12.55
2019-04-22T04:13:05.520Z,16.77
2019-04-22T04:15:29.929Z,15.68
2019-04-22T04:18:13.873Z,14.75
2019-04-22T04:23:31.248Z,16.42
2019-04-22T04:25:52.686Z,14.07
2019-04-22T04:31:19.506Z,14.05
2019-04-22T04:39:00.657Z,18.82
2019-04-22T04:41:42.677Z,17.15
2019-04-22T04:44:23.481Z,18.45
2019-04-22T04:46:51.966Z,17.62
2019-04-22T04:49:25.946Z,19.00
2019-04-22T04:52:16.615Z,21.75
2019-04-22T04:57:16.938Z,16.55
2019-04-22T05:00:13.238Z,18.48
2019-04-22T05:05:08.317Z,16.52
2019-04-22T05:07:44.306Z,16.60
2019-04-22T05:10:34.882Z,14.58
2019-04-22T05:13:14.478Z,14.68
2019-04-22T05:15:43.175Z,14.38
2019-04-22T05:18:12.547Z,15.18
2019-04-22T05:20:59.733Z,14.05
2019-04-22T05:23:24.916Z,13.15
2019-04-22T05:26:04.216Z,13.45
2019-04-22T05:28:35.315Z,14.50
2019-04-22T05:31:16.181Z,15.18
2019-04-22T05:33:48.231Z,16.52
2019-04-22T05:36:28.339Z,11.40
2019-04-22T05:39:06.064Z,14.00
2019-04-22T05:41:45.988Z,13.85
2019-04-22T05:44:26.311Z,16.73
2019-04-22T05:46:56.245Z,16.35
2019-04-22T05:49:45.876Z,14.07
2019-04-22T05:52:10.791Z,12.80
2019-04-22T05:54:42.778Z,15.55
2019-04-22T05:57:17.907Z,14.80
2019-04-22T06:00:01.601Z,11.25
2019-04-22T06:02:48.751Z,15.15
2019-04-22T06:05:11.902Z,12.82
2019-04-22T06:07:45.699Z,11.97
2019-04-22T06:10:29.342Z,14.53
2019-04-22T06:13:01.059Z,10.70
2019-04-22T06:15:33.906Z,11.80
2019-04-22T06:21:03.751Z,10.53
2019-04-22T06:23:35.948Z,12.68
2019-04-22T06:28:50.087Z,12.50
2019-04-22T06:31:37.228Z,11.28
2019-04-22T06:34:10.311Z,16.60
2019-04-22T06:36:47.701Z,16.55
2019-04-22T06:39:21.139Z,15.88
2019-04-22T06:41:58.927Z,13.05
2019-04-22T06:44:32.309Z,15.20
2019-04-22T06:47:10.560Z,15.30
2019-04-22T06:49:46.640Z,11.10
2019-04-22T06:55:11.492Z,10.72
2019-04-22T06:57:37.008Z,12.93
2019-04-22T07:00:17.423Z,14.15
2019-04-22T07:03:18.972Z,12.55
2019-04-22T07:08:39.387Z,11.55
2019-04-22T07:13:51.756Z,11.90
2019-04-22T07:16:30.206Z,12.95
2019-04-22T07:19:05.649Z,10.65
2019-04-22T07:21:53.111Z,17.17
2019-04-22T07:24:58.286Z,11.57
2019-04-22T07:27:46.029Z,11.28
2019-04-22T07:30:55.546Z,9.88
2019-04-22T07:33:34.883Z,11.40
2019-04-22T07:36:33.498Z,12.43
2019-04-22T07:38:50.742Z,14.60
2019-04-22T07:41:27.076Z,12.50
2019-04-22T07:46:56.592Z,14.13
2019-04-22T07:49:33.974Z,12.88
2019-04-22T07:52:03.675Z,12.37
2019-04-22T07:54:41.422Z,16.50
2019-04-22T07:57:19.925Z,14.35
2019-04-22T07:59:57.172Z,11.80
2019-04-22T08:02:37.476Z,12.95
2019-04-22T08:05:20.681Z,13.90
2019-04-22T08:07:43.489Z,11.00
2019-04-22T08:13:05.443Z,14.47
2019-04-22T08:15:48.601Z,9.55
2019-04-22T08:18:21.944Z,10.63
2019-04-22T08:20:56.801Z,12.95
2019-04-22T08:23:36.792Z,8.10
2019-04-22T08:26:05.479Z,8.53
2019-04-22T08:28:53.303Z,15.35
2019-04-22T08:34:01.924Z,7.50
2019-04-22T08:36:50.781Z,11.73
2019-04-22T08:39:18.870Z,10.53
2019-04-22T08:41:43.774Z,11.03
2019-04-22T08:47:11.206Z,12.00
2019-04-22T08:49:50.493Z,9.10
2019-04-22T08:54:57.522Z,8.43
2019-04-22T08:57:40.725Z,9.10
2019-04-22T09:00:03.975Z,8.38
2019-04-22T09:02:41.613Z,12.88
2019-04-22T09:05:22.815Z,13.32
2019-04-22T09:07:49.800Z,11.30
2019-04-22T09:10:36.182Z,15.90
2019-04-22T09:15:34.355Z,16.32
2019-04-22T09:18:17.236Z,13.05
2019-04-22T09:21:04.733Z,14.87
2019-04-22T09:23:32.331Z,13.93
2019-04-22T09:26:02.936Z,10.45
2019-04-22T09:28:48.778Z,13.48
2019-04-22T09:31:11.458Z,14.83
2019-04-22T09:33:43.053Z,15.68
2019-04-22T09:36:29.034Z,14.78
2019-04-22T09:39:12.138Z,19.05
2019-04-22T09:44:12.885Z,17.75
2019-04-22T09:49:51.932Z,19.27
2019-04-22T09:52:22.486Z,9.40
2019-04-22T09:55:06.084Z,11.10
2019-04-22T09:57:43.166Z,21.35
2019-04-22T10:00:15.512Z,11.95
2019-04-22T10:02:55.432Z,10.38
2019-04-22T10:05:28.895Z,11.73
2019-04-22T10:09:02.248Z,14.40
2019-04-22T10:12:32.512Z,15.15
2019-04-22T10:15:23.361Z,8.03
2019-04-22T10:17:57.936Z,7.70
2019-04-22T10:20:38.762Z,10.18
2019-04-22T10:23:17.656Z,10.75
2019-04-22T10:25:54.447Z,16.70
2019-04-22T10:28:32.774Z,11.10
2019-04-22T10:31:21.877Z,11.43
2019-04-22T10:33:30.883Z,8.33
2019-04-22T10:35:51.816Z,7.12
2019-04-22T10:38:28.385Z,9.23
2019-04-22T10:41:02.795Z,9.65
2019-04-22T10:43:45.270Z,10.90
2019-04-22T10:46:19.871Z,9.85
2019-04-22T10:48:54.655Z,7.20
2019-04-22T10:51:40.434Z,10.48
2019-04-22T10:54:13.876Z,7.75
2019-04-22T10:56:48.784Z,10.28
2019-04-22T10:59:24.689Z,8.83
2019-04-22T11:02:01.368Z,13.13
2019-04-22T11:04:38.611Z,9.05
2019-04-22T11:07:15.380Z,9.25
2019-04-22T11:09:59.242Z,6.62
2019-04-22T11:12:29.977Z,6.53
2019-04-22T11:15:28.572Z,10.45
2019-04-22T11:18:31.631Z,7.67
2019-04-22T11:22:03.748Z,7.70
2019-04-22T11:24:30.701Z,8.08
2019-04-22T11:27:05.318Z,8.33
2019-04-22T11:30:07.999Z,11.33
2019-04-22T11:33:20.632Z,7.70
2019-04-22T11:36:30.622Z,8.90
2019-04-22T11:39:42.785Z,9.20
2019-04-22T11:42:41.525Z,8.38
2019-04-22T11:45:47.249Z,10.35
2019-04-22T11:48:26.924Z,11.18
2019-04-22T11:51:00.298Z,19.30
2019-04-22T11:53:34.616Z,8.88
2019-04-22T11:56:32.527Z,9.55
2019-04-22T11:59:36.313Z,12.47
2019-04-22T12:02:42.929Z,10.75
2019-04-22T12:05:21.543Z,9.95
2019-04-22T12:07:55.261Z,13.03
2019-04-22T12:10:36.631Z,8.53
2019-04-22T12:13:04.422Z,8.65
2019-04-22T12:15:37.676Z,8.03
2019-04-22T12:18:13.072Z,10.03
2019-04-22T12:20:47.444Z,13.45
2019-04-22T12:23:21.169Z,10.93
2019-04-22T12:26:04.148Z,11.95
2019-04-22T12:28:33.077Z,11.63
2019-04-22T12:31:37.835Z,9.95
2019-04-22T12:34:44.351Z,8.13
2019-04-22T12:37:52.895Z,13.00
2019-04-22T12:40:30.107Z,9.98
2019-04-22T12:42:55.483Z,8.73
2019-04-22T12:45:34.201Z,11.45
2019-04-22T12:48:10.255Z,9.50
2019-04-22T12:50:52.719Z,12.68
2019-04-22T12:53:28.082Z,10.13
2019-04-22T12:56:02.913Z,7.90
2019-04-22T12:58:37.832Z,8.40
2019-04-22T13:01:12.824Z,9.40
2019-04-22T13:03:46.571Z,39.10
2019-04-22T13:06:19.922Z,8.93
2019-04-22T13:08:54.482Z,11.88
2019-04-22T13:11:32.229Z,6.40
2019-04-22T13:14:04.960Z,8.35
2019-04-22T13:16:40.733Z,8.25
2019-04-22T13:19:19.353Z,6.87
2019-04-22T13:21:54.427Z,7.80
2019-04-22T13:24:28.119Z,9.68
2019-04-22T13:27:01.389Z,8.88
2019-04-22T13:29:35.079Z,19.80
2019-04-22T13:32:08.985Z,7.40
2019-04-22T13:34:49.194Z,8.30
2019-04-22T13:37:19.212Z,8.35
2019-04-22T13:39:52.920Z,6.92
2019-04-22T13:42:27.540Z,8.40
2019-04-22T13:45:01.969Z,9.63
2019-04-22T13:47:55.754Z,6.92
2019-04-22T13:50:49.466Z,8.10
2019-04-22T13:53:28.877Z,18.87
2019-04-22T13:58:12.381Z,9.58
2019-04-22T14:00:34.439Z,12.65
2019-04-22T14:03:29.013Z,5.55
2019-04-22T14:06:02.716Z,9.25
2019-04-22T14:08:37.560Z,7.05
2019-04-22T14:11:23.369Z,11.78
2019-04-22T14:13:46.327Z,8.45
2019-04-22T14:16:22.706Z,9.43
2019-04-22T14:18:56.106Z,7.55
2019-04-22T14:21:30.606Z,9.13
2019-04-22T14:24:04.931Z,8.45
2019-04-22T14:26:52.403Z,12.90
2019-04-22T14:29:17.495Z,8.03
2019-04-22T14:32:02.871Z,14.07
2019-04-22T14:34:26.924Z,12.50
2019-04-22T14:37:11.882Z,10.35
2019-04-22T14:39:51.690Z,8.20
2019-04-22T14:42:44.028Z,9.80
2019-04-22T14:48:02.701Z,9.25
2019-04-22T14:50:34.081Z,9.78
2019-04-22T14:53:08.205Z,8.30
2019-04-22T14:55:27.480Z,7.15
2019-04-22T14:57:59.144Z,7.62
2019-04-22T15:00:33.945Z,8.73
2019-04-22T15:03:08.198Z,7.03
2019-04-22T15:05:42.018Z,9.40
2019-04-22T15:08:15.515Z,14.75
2019-04-22T15:10:49.725Z,11.80
2019-04-22T15:13:23.414Z,5.72
2019-04-22T15:16:21.077Z,7.90
2019-04-22T15:19:07.744Z,7.10
2019-04-22T15:21:42.931Z,9.03
2019-04-22T15:24:27.566Z,10.10
2019-04-22T15:27:04.561Z,8.08
2019-04-22T15:29:39.081Z,11.00
2019-04-22T15:32:13.537Z,9.15
2019-04-22T15:34:47.113Z,7.87
2019-04-22T15:37:22.209Z,19.30
2019-04-22T15:39:56.799Z,7.00
2019-04-22T15:42:35.584Z,7.90
2019-04-22T15:45:08.441Z,7.58
2019-04-22T15:47:41.809Z,9.68
2019-04-22T15:50:16.217Z,8.83
2019-04-22T15:52:53.775Z,13.75
2019-04-22T15:55:26.800Z,10.55
2019-04-22T15:58:01.610Z,7.95
2019-04-22T16:00:44.445Z,9.45
2019-04-22T16:03:12.493Z,8.90
2019-04-22T16:05:46.122Z,12.20
2019-04-22T16:08:21.151Z,10.00
2019-04-22T16:10:55.867Z,12.53
2019-04-22T16:13:32.402Z,9.53
2019-04-22T16:16:04.795Z,8.50
2019-04-22T16:18:38.211Z,8.70
2019-04-22T16:21:13.090Z,8.68
2019-04-22T16:23:56.722Z,14.95
2019-04-22T16:27:06.950Z,8.58
2019-04-22T16:29:41.210Z,10.08
2019-04-22T16:32:15.641Z,10.43
2019-04-22T16:34:49.922Z,12.35
2019-04-22T16:37:25.070Z,13.48
2019-04-22T16:39:58.889Z,13.05
2019-04-22T16:42:41.307Z,13.53
2019-04-22T16:45:09.453Z,18.87
2019-04-22T16:47:43.978Z,11.83
2019-04-22T16:50:18.576Z,12.65
2019-04-22T16:52:52.399Z,16.93
2019-04-22T16:55:26.559Z,15.85
2019-04-22T16:58:01.041Z,11.48
2019-04-22T17:00:34.563Z,10.08
2019-04-22T17:03:31.196Z,11.43
2019-04-22T17:06:14.424Z,8.80
2019-04-22T17:08:48.677Z,13.53
2019-04-22T17:11:22.255Z,11.75
2019-04-22T17:13:57.294Z,17.12
2019-04-22T17:16:56.755Z,13.48
2019-04-22T17:19:59.627Z,16.10
2019-04-22T17:23:13.821Z,16.82
2019-04-22T17:25:52.495Z,10.63
2019-04-22T17:28:25.967Z,14.00
2019-04-22T17:31:01.909Z,13.30
2019-04-22T17:33:37.150Z,11.30
2019-04-22T17:36:12.081Z,16.25
2019-04-22T17:38:56.480Z,10.30
2019-04-22T17:41:32.515Z,14.45
2019-04-22T17:44:25.060Z,16.67
2019-04-22T17:46:51.018Z,13.95
2019-04-22T17:49:50.465Z,20.55
2019-04-22T17:54:51.622Z,20.08
2019-04-22T17:57:27.973Z,23.32
2019-04-22T18:00:06.748Z,17.48
2019-04-22T18:02:32.638Z,15.48
2019-04-22T18:05:02.005Z,25.45
2019-04-22T18:07:49.309Z,19.65
2019-04-22T18:10:32.445Z,18.12
2019-04-22T18:13:08.838Z,16.23
2019-04-22T18:15:40.952Z,14.85
2019-04-22T18:18:18.615Z,17.42
2019-04-22T18:20:48.907Z,14.40
2019-04-22T18:23:12.701Z,15.83
2019-04-22T18:26:01.656Z,14.15
2019-04-22T18:28:42.172Z,15.38
2019-04-22T18:31:07.700Z,19.80
2019-04-22T18:33:43.303Z,21.23
2019-04-22T18:36:19.854Z,19.57
2019-04-22T18:41:30.881Z,13.93
2019-04-22T18:44:11.388Z,15.28
2019-04-22T18:46:40.660Z,18.67
2019-04-22T18:49:16.548Z,23.95
2019-04-22T18:52:10.427Z,39.53
2019-04-22T18:54:56.895Z,43.85
2019-04-22T18:57:41.175Z,38.30
2019-04-22T19:00:07.076Z,48.05
2019-04-22T19:02:49.491Z,53.92
2019-04-22T19:05:28.169Z,40.55
2019-04-22T19:08:18.697Z,18.12
2019-04-22T19:10:57.712Z,15.05
2019-04-22T19:16:12.708Z,13.95
2019-04-22T19:18:39.315Z,12.85
2019-04-22T19:21:12.454Z,12.47
2019-04-22T19:24:01.533Z,11.70
2019-04-22T19:26:55.922Z,21.37
2019-04-22T19:29:21.988Z,16.35
2019-04-22T19:31:56.852Z,18.37
2019-04-22T19:34:32.267Z,11.03
2019-04-22T19:37:10.920Z,12.07
2019-04-22T19:39:52.597Z,11.63
2019-04-22T19:42:25.556Z,14.23
2019-04-22T19:44:55.273Z,9.73
2019-04-22T19:47:38.925Z,12.85
2019-04-22T19:52:44.686Z,11.33
2019-04-22T19:55:23.850Z,10.18
2019-04-22T19:57:57.340Z,12.78
2019-04-22T20:00:41.786Z,16.85
2019-04-22T20:03:48.321Z,15.20
2019-04-22T20:06:28.668Z,13.62
2019-04-22T20:09:06.670Z,16.85
2019-04-22T20:11:41.327Z,13.93
2019-04-22T20:14:12.623Z,15.53
2019-04-22T20:16:46.599Z,17.95
2019-04-22T20:19:33.795Z,11.68
2019-04-22T20:22:03.405Z,15.30
2019-04-22T20:24:22.580Z,12.78
2019-04-22T20:27:16.359Z,16.17
2019-04-22T20:29:47.834Z,15.28
2019-04-22T20:32:22.119Z,13.88
2019-04-22T20:34:57.658Z,15.08
2019-04-22T20:37:35.540Z,15.88
2019-04-22T20:40:09.137Z,17.62
2019-04-22T20:42:48.976Z,17.17
2019-04-22T20:45:15.211Z,18.15
2019-04-22T20:47:43.987Z,18.80
2019-04-22T20:50:32.893Z,15.38
2019-04-22T20:53:08.586Z,17.85
2019-04-22T20:55:36.877Z,24.43
2019-04-22T20:58:12.189Z,21.35
2019-04-22T21:00:40.269Z,18.05
2019-04-22T21:03:15.924Z,19.02
2019-04-22T21:05:49.221Z,19.25
2019-04-22T21:08:38.595Z,18.15
2019-04-22T21:11:04.474Z,17.50
2019-04-22T21:13:46.615Z,16.82
2019-04-22T21:16:22.252Z,21.10
2019-04-22T21:18:47.271Z,21.25
2019-04-22T21:21:31.682Z,21.07
2019-04-22T21:23:58.376Z,15.83
2019-04-22T21:26:42.669Z,24.23
2019-04-22T21:29:13.068Z,18.50
2019-04-22T21:31:59.868Z,19.52
2019-04-22T21:34:26.374Z,19.80
2019-04-22T21:37:12.098Z,18.42
2019-04-22T21:39:36.379Z,16.60
2019-04-22T21:42:14.299Z,19.57
2019-04-22T21:44:44.105Z,19.27
2019-04-22T21:47:28.745Z,17.35
2019-04-22T21:50:19.668Z,23.10
2019-04-22T21:52:33.519Z,26.80
2019-04-22T21:55:14.398Z,20.85
2019-04-22T21:57:57.230Z,18.67
2019-04-22T22:03:17.859Z,24.18
2019-04-22T22:05:37.628Z,15.38
2019-04-22T22:08:23.116Z,19.92
2019-04-22T22:10:52.642Z,18.32
2019-04-22T22:13:32.013Z,17.48
2019-04-22T22:16:04.563Z,18.23
2019-04-22T22:18:30.033Z,19.82
2019-04-22T22:21:33.108Z,20.72
2019-04-22T22:23:52.033Z,23.30
2019-04-22T22:26:18.605Z,18.10
2019-04-22T22:29:05.407Z,22.75
2019-04-22T22:31:41.309Z,23.47
2019-04-22T22:34:09.783Z,19.15
2019-04-22T22:36:36.661Z,21.40
2019-04-22T22:39:08.708Z,19.23
2019-04-22T22:41:34.151Z,17.27
2019-04-22T22:44:17.629Z,18.77
2019-04-22T22:46:58.897Z,20.40
2019-04-22T22:49:40.585Z,20.52
2019-04-22T22:52:40.854Z,22.93
2019-04-22T22:54:46.231Z,21.87
2019-04-22T22:57:27.746Z,23.75
2019-04-22T22:59:58.642Z,20.68
2019-04-22T23:02:59.568Z,21.23
2019-04-22T23:05:16.893Z,21.25
2019-04-22T23:07:55.440Z,20.15
2019-04-22T23:10:25.335Z,20.27
2019-04-22T23:13:02.712Z,18.32
2019-04-22T23:15:27.563Z,20.80
2019-04-22T23:17:54.132Z,21.77
2019-04-22T23:20:36.085Z,20.45
2019-04-22T23:23:29.749Z,18.32
2019-04-22T23:26:07.178Z,21.97
2019-04-22T23:29:02.428Z,20.12
2019-04-22T23:31:39.976Z,20.37
2019-04-22T23:34:24.962Z,21.02
2019-04-22T23:37:21.905Z,17.90
2019-04-22T23:40:09.726Z,22.87
2019-04-22T23:42:33.706Z,16.85
2019-04-22T23:45:13.919Z,17.57
2019-04-22T23:47:39.057Z,19.20
2019-04-22T23:50:29.616Z,18.05
2019-04-22T23:53:00.629Z,21.02
2019-04-22T23:55:36.977Z,18.40
2019-04-22T23:58:07.937Z,19.80
